Halstead, KS (67056)

1:07 PM CST on February 14, 2016 (GMT -0600)
Industrial Road | | Change Station
CLOSE
Current Station
Personal Weather Station
Location: Halstead, KS
Elevation: 1407 ft
Nearby Weather Stations

Elev 1407 ft 38.00 °N, 97.52 °W | Updated 21 seconds ago

Clear
Clear
47.9 °F
Feels Like 48 °F
N
2.1
Wind Variable Wind from WSW
Gusts 5.0 mph

Today
High -- | Low -- °F
--% Chance of Precip.
Yesterday
High -- | Low -- °F
Precip. -- in
Pressure 29.94 in
Visibility 10.0 miles
Clouds Clear
Windchill 48 °F
Dew Point 31 °F
Humidity 49%
Rainfall 0.00 in
Snow Depth Not available.
7:21 AM 6:07 PM
Waxing Crescent, 44% visible
METAR KEWK 141855Z AUTO 25004KT 10SM CLR 09/M04 A2994 RMK AO1
Pressure 29.94 in
Visibility 10.0 miles
Clouds Clear
Windchill 48 °F
Dew Point 31 °F
Humidity 49%
Rainfall 0.00 in
Snow Depth Not available.
7:21 AM 6:07 PM
Waxing Crescent, 44% visible
METAR KEWK 141855Z AUTO 25004KT 10SM CLR 09/M04 A2994 RMK AO1

10-Day Weather Forecast

Almanac

Astronomy

Feb. 14, 2016 Rise Set
Actual Time
Civil Twilight
Nautical Twilight
Astronomical Twilight
Moon
Length of Visible Light
Length of Day
Tomorrow will be .
, % of the Moon is Illuminated

Today's Extremes

State Highs State Lows

Community

WunderPhotos

Upload Photos

1,892,874 photos uploaded!

WunderBlog® & News

Nearby

Air Quality

  Air Quality AQ Index Pollutant
Not available.

Snow Depth

Station Depth Elevation

Earthquake Activity

City Distance Mag. Time & Date
Minimum magnitude displayed is 2.5.

Coastal Water Temperatures

Place Temperature

Stations

Nearby Weather Stations

Station Location Temp. Windchill Dew Point Humidity Wind Precip. Elev Updated Type
                   

Watches & Warnings

There are currently no watches in effect.